Time;durP1;ratioP1;P1;durP2;ratioP2;P2;SDS_P1;SDS_P2;PMS_P1;PMS_P2;Temp;Humidity;BMP_temperature;BMP_pressure;BME280_temperature;BME280_humidity;BME280_pressure;Samples;Min_cycle;Max_cycle;Signal;HPM_P1;HPM_P2
2022/08/07 00:00:48;;;;;;;918.28;832.63;;;20.50;95.80;;;;;;4982525;28;20698;-84
2022/08/07 00:03:15;;;;;;;925.97;840.17;;;20.50;95.80;;;;;;4994608;28;20197;-85
2022/08/07 00:05:42;;;;;;;919.75;834.05;;;20.50;95.80;;;;;;4991333;28;20209;-85
2022/08/07 00:08:09;;;;;;;916.95;831.28;;;20.50;95.90;;;;;;4991345;28;20283;-85
2022/08/07 00:10:37;;;;;;;913.15;827.60;;;20.50;96.00;;;;;;4990453;28;20605;-83
2022/08/07 00:13:06;;;;;;;907.33;821.97;;;20.50;96.00;;;;;;4990371;28;20247;-84
2022/08/07 00:15:33;;;;;;;906.33;821.17;;;20.40;96.00;;;;;;4990134;28;20499;-84
2022/08/07 00:18:00;;;;;;;903.15;817.83;;;20.40;96.10;;;;;;4998754;28;20290;-84
2022/08/07 00:20:26;;;;;;;924.38;838.67;;;20.40;96.20;;;;;;4987394;28;20256;-84
2022/08/07 00:22:53;;;;;;;899.35;814.08;;;20.40;96.20;;;;;;4990387;28;20213;-84
2022/08/07 00:25:20;;;;;;;917.35;830.90;;;20.40;96.30;;;;;;4988382;28;20564;-84
2022/08/07 00:27:49;;;;;;;917.00;831.42;;;20.40;96.30;;;;;;4990786;28;20189;-85
2022/08/07 00:30:15;;;;;;;905.22;819.92;;;20.30;96.30;;;;;;4990321;28;20245;-84
2022/08/07 00:32:42;;;;;;;916.58;831.03;;;20.30;96.40;;;;;;4998831;28;20205;-84
2022/08/07 00:35:09;;;;;;;907.58;821.88;;;20.30;96.50;;;;;;4994960;28;20738;-84
2022/08/07 00:37:36;;;;;;;893.22;808.17;;;20.30;96.50;;;;;;5004789;28;20202;-84
2022/08/07 00:40:04;;;;;;;896.53;811.42;;;20.30;96.60;;;;;;4986828;28;20196;-83
2022/08/07 00:42:32;;;;;;;891.97;806.97;;;20.30;96.60;;;;;;4992793;28;20213;-84
2022/08/07 00:45:01;;;;;;;891.80;806.80;;;20.20;96.60;;;;;;4996718;28;20544;-84
2022/08/07 00:47:28;;;;;;;895.80;810.80;;;20.20;96.70;;;;;;5002194;28;20193;-84
2022/08/07 00:49:54;;;;;;;901.20;816.22;;;20.20;96.80;;;;;;4987962;28;20211;-84
2022/08/07 00:52:21;;;;;;;888.40;803.85;;;20.20;96.80;;;;;;4992910;28;20205;-84
2022/08/07 00:54:48;;;;;;;906.75;821.45;;;20.20;96.90;;;;;;4998105;28;20205;-84
2022/08/07 00:57:15;;;;;;;912.45;826.78;;;20.20;96.90;;;;;;4989288;28;20233;-85
2022/08/07 00:59:42;;;;;;;889.30;804.53;;;20.10;96.90;;;;;;4977986;28;20207;-84
2022/08/07 01:02:11;;;;;;;894.30;809.33;;;20.10;97.00;;;;;;4997736;28;20234;-84
2022/08/07 01:04:39;;;;;;;901.33;816.13;;;20.10;97.10;;;;;;4992900;28;20201;-83
2022/08/07 01:07:06;;;;;;;898.95;813.88;;;20.10;97.10;;;;;;4993823;28;20209;-84
2022/08/07 01:09:33;;;;;;;899.13;813.20;;;20.10;97.20;;;;;;4992872;28;20201;-83
2022/08/07 01:12:00;;;;;;;882.72;797.92;;;20.10;97.20;;;;;;4993272;28;20203;-84
2022/08/07 01:14:27;;;;;;;871.97;787.47;;;20.10;97.30;;;;;;4998419;28;20197;-84
2022/08/07 01:16:54;;;;;;;875.55;790.95;;;20.00;97.30;;;;;;4992792;28;20223;-83
2022/08/07 01:19:22;;;;;;;885.10;800.33;;;20.00;97.70;;;;;;4987763;28;20228;-84
2022/08/07 01:21:52;;;;;;;886.42;801.75;;;20.00;97.40;;;;;;4993715;28;20650;-83
2022/08/07 01:24:20;;;;;;;878.03;793.35;;;20.00;97.50;;;;;;4992152;28;20681;-84
2022/08/07 01:26:47;;;;;;;862.00;777.85;;;19.90;97.50;;;;;;4994771;28;20292;-83
2022/08/07 01:29:14;;;;;;;884.10;799.10;;;19.90;97.50;;;;;;4998983;28;20200;-83
2022/08/07 01:31:41;;;;;;;882.72;797.85;;;19.90;97.60;;;;;;4988303;28;20219;-83
2022/08/07 01:34:08;;;;;;;892.70;807.70;;;19.90;97.60;;;;;;4985711;28;20205;-83
2022/08/07 01:36:35;;;;;;;860.45;776.38;;;19.90;97.70;;;;;;4999709;28;20230;-83
2022/08/07 01:39:03;;;;;;;879.40;794.95;;;19.80;97.70;;;;;;4981248;28;20568;-83
2022/08/07 01:41:30;;;;;;;864.22;779.75;;;19.80;97.70;;;;;;4993561;28;20584;-84
2022/08/07 01:43:57;;;;;;;869.03;784.65;;;19.90;97.80;;;;;;4986528;28;20567;-84
2022/08/07 01:46:25;;;;;;;859.95;775.75;;;19.80;97.80;;;;;;4992161;28;20519;-84
2022/08/07 01:48:52;;;;;;;866.13;781.83;;;19.80;97.80;;;;;;4989273;28;20205;-83
2022/08/07 01:51:20;;;;;;;876.50;791.85;;;19.80;97.90;;;;;;4995906;28;20201;-83
2022/08/07 01:53:53;;;;;;;872.22;787.78;;;19.80;98.00;;;;;;4994866;28;20205;-84
2022/08/07 01:56:25;;;;;;;867.05;782.83;;;19.80;98.10;;;;;;4993525;28;20247;-83
2022/08/07 01:58:58;;;;;;;871.22;786.83;;;19.70;98.00;;;;;;4987432;28;20795;-83
2022/08/07 02:01:28;;;;;;;851.58;767.67;;;19.70;98.10;;;;;;4990664;28;20593;-82
2022/08/07 02:04:02;;;;;;;849.13;765.45;;;19.70;98.10;;;;;;4992296;28;20208;-83
2022/08/07 02:06:31;;;;;;;867.50;783.35;;;19.70;98.10;;;;;;4991729;28;20220;-81
2022/08/07 02:09:00;;;;;;;866.38;782.13;;;19.70;98.20;;;;;;5000993;28;20208;-82
2022/08/07 02:11:28;;;;;;;855.67;771.65;;;19.60;98.20;;;;;;4986890;28;20212;-82
2022/08/07 02:13:57;;;;;;;874.38;789.85;;;19.70;98.30;;;;;;4989568;28;20215;-83
2022/08/07 02:16:26;;;;;;;864.90;780.80;;;19.60;98.30;;;;;;4998346;28;20225;-82
2022/08/07 02:18:54;;;;;;;864.33;779.92;;;19.60;98.30;;;;;;4993489;28;20235;-81
2022/08/07 02:21:21;;;;;;;870.90;786.50;;;19.60;98.40;;;;;;4988764;28;20377;-83
2022/08/07 02:23:49;;;;;;;855.10;771.28;;;19.60;98.40;;;;;;5007839;28;20252;-83
2022/08/07 02:26:17;;;;;;;861.95;777.85;;;19.60;98.50;;;;;;5003614;28;20649;-82
2022/08/07 02:28:47;;;;;;;846.65;762.88;;;19.50;98.50;;;;;;4982425;28;20285;-83
2022/08/07 02:31:14;;;;;;;845.33;761.72;;;19.50;98.50;;;;;;4991102;28;20221;-83
2022/08/07 02:33:41;;;;;;;834.92;751.58;;;19.50;98.60;;;;;;5001256;28;20205;-86
2022/08/07 02:36:09;;;;;;;866.17;781.80;;;19.50;98.50;;;;;;4991231;28;20687;-85
2022/08/07 02:38:39;;;;;;;872.75;788.30;;;19.50;98.60;;;;;;5006709;28;20192;-85
2022/08/07 02:41:06;;;;;;;857.70;773.67;;;19.50;98.70;;;;;;4988875;28;20220;-86
2022/08/07 02:43:35;;;;;;;842.95;759.38;;;19.50;98.70;;;;;;4990702;28;20208;-86
2022/08/07 02:46:06;;;;;;;855.60;771.33;;;19.40;98.80;;;;;;4989565;28;20596;-86
2022/08/07 02:48:34;;;;;;;838.15;754.70;;;19.40;98.90;;;;;;4989277;28;20655;-86
2022/08/07 02:51:07;;;;;;;836.90;753.38;;;19.40;98.90;;;;;;4990536;28;20659;-86
2022/08/07 02:53:38;;;;;;;857.40;773.35;;;19.40;99.00;;;;;;5010709;28;20200;-89
2022/08/07 02:56:06;;;;;;;841.08;757.70;;;19.30;99.00;;;;;;4992858;28;20216;-88
2022/08/07 02:58:34;;;;;;;855.45;771.55;;;19.30;99.10;;;;;;4993589;28;20197;-89
2022/08/07 03:01:04;;;;;;;851.22;767.17;;;19.30;99.20;;;;;;4989366;28;20205;-89
2022/08/07 03:03:34;;;;;;;848.85;765.15;;;19.30;99.30;;;;;;4992925;28;20203;-90
2022/08/07 03:06:01;;;;;;;855.22;771.33;;;19.30;99.40;;;;;;4993612;28;20215;-89
2022/08/07 03:08:29;;;;;;;844.75;761.05;;;19.30;99.50;;;;;;4993319;28;20204;-89
2022/08/07 03:10:57;;;;;;;847.38;763.72;;;19.30;99.50;;;;;;4986617;28;20204;-87
2022/08/07 03:13:24;;;;;;;858.70;774.72;;;19.30;99.60;;;;;;4987811;28;20196;-88
2022/08/07 03:15:51;;;;;;;823.13;740.05;;;19.30;99.60;;;;;;4994607;28;20274;-88
2022/08/07 03:18:21;;;;;;;840.90;757.22;;;19.30;99.70;;;;;;4998722;28;20276;-89
2022/08/07 03:20:48;;;;;;;841.83;758.25;;;19.20;99.70;;;;;;4996341;28;20226;-90
2022/08/07 03:23:16;;;;;;;838.05;754.50;;;19.20;99.70;;;;;;5000141;28;20226;-86
2022/08/07 03:25:45;;;;;;;834.45;751.08;;;19.20;99.80;;;;;;4991674;28;20256;-88
2022/08/07 03:28:16;;;;;;;813.47;730.72;;;19.20;99.80;;;;;;4994779;28;20576;-90
2022/08/07 03:30:43;;;;;;;842.92;759.25;;;19.20;99.80;;;;;;4992963;28;20206;-90
2022/08/07 03:33:10;;;;;;;826.00;742.83;;;19.10;99.80;;;;;;4989354;28;20211;-89
2022/08/07 03:35:41;;;;;;;837.85;754.40;;;19.10;99.90;;;;;;4997503;28;20678;-88
2022/08/07 03:38:08;;;;;;;842.83;759.05;;;19.10;99.90;;;;;;5003473;28;20218;-87
2022/08/07 03:40:35;;;;;;;835.33;751.65;;;19.10;99.90;;;;;;4989987;28;20203;-86
2022/08/07 03:43:02;;;;;;;829.83;746.53;;;19.10;99.90;;;;;;4982842;28;20207;-87
2022/08/07 03:45:29;;;;;;;839.38;755.70;;;19.10;99.90;;;;;;5003901;28;20203;-87
2022/08/07 03:47:58;;;;;;;843.28;759.90;;;19.10;99.90;;;;;;4993296;28;20200;-87
2022/08/07 03:50:26;;;;;;;834.47;751.00;;;19.10;99.90;;;;;;4985329;28;20213;-86
2022/08/07 03:52:56;;;;;;;838.10;754.50;;;19.10;99.90;;;;;;4994611;28;20221;-87
2022/08/07 03:55:23;;;;;;;835.90;752.53;;;19.00;99.90;;;;;;4992670;28;20204;-85
2022/08/07 03:57:51;;;;;;;829.13;745.97;;;19.00;99.90;;;;;;4986297;28;20226;-87
2022/08/07 04:00:18;;;;;;;815.00;732.13;;;19.00;99.90;;;;;;4994180;28;20199;-87
2022/08/07 04:02:45;;;;;;;809.30;726.40;;;19.00;99.90;;;;;;4994871;28;20225;-87
2022/08/07 04:05:12;;;;;;;820.83;737.83;;;19.00;99.90;;;;;;4994984;28;20222;-88
2022/08/07 04:07:44;;;;;;;809.88;727.28;;;19.00;99.90;;;;;;4996515;28;20781;-88
2022/08/07 04:10:13;;;;;;;836.17;752.78;;;18.90;99.90;;;;;;4995086;28;20203;-88
2022/08/07 04:12:40;;;;;;;832.42;748.95;;;18.90;99.90;;;;;;4993976;28;20228;-87
2022/08/07 04:15:09;;;;;;;828.50;745.40;;;18.90;99.90;;;;;;5003868;28;20200;-89
2022/08/07 04:17:36;;;;;;;822.70;739.70;;;18.90;99.90;;;;;;5006112;28;20299;-92
2022/08/07 04:20:03;;;;;;;808.13;725.42;;;18.90;99.90;;;;;;4993293;28;20219;-92
2022/08/07 04:22:30;;;;;;;808.03;725.35;;;18.90;99.90;;;;;;4997111;28;20233;-88
2022/08/07 04:24:59;;;;;;;823.88;740.90;;;18.90;99.90;;;;;;4995659;28;20540;-90
2022/08/07 04:27:27;;;;;;;822.88;739.63;;;18.80;99.90;;;;;;4996487;28;20310;-87
2022/08/07 04:29:54;;;;;;;810.58;727.90;;;18.90;99.90;;;;;;5001728;28;20666;-86
2022/08/07 04:32:21;;;;;;;823.50;740.60;;;18.80;99.90;;;;;;4998412;28;20207;-93
2022/08/07 04:34:49;;;;;;;815.92;733.05;;;18.80;99.90;;;;;;5009660;28;20199;-88
2022/08/07 04:37:16;;;;;;;807.20;724.45;;;18.80;99.90;;;;;;4998855;28;20631;-90
2022/08/07 04:39:43;;;;;;;833.15;749.67;;;18.80;99.90;;;;;;4994253;28;20690;-89
2022/08/07 04:42:10;;;;;;;825.95;742.85;;;18.80;99.90;;;;;;4994244;28;20570;-88
2022/08/07 04:44:38;;;;;;;810.85;728.22;;;18.70;99.90;;;;;;5002427;28;20201;-86
2022/08/07 04:47:11;;;;;;;802.40;719.83;;;18.70;99.90;;;;;;4995733;28;20684;-88
2022/08/07 04:49:44;;;;;;;821.83;738.83;;;18.80;99.90;;;;;;4986565;28;20670;-89
2022/08/07 04:52:18;;;;;;;813.97;731.08;;;18.70;99.90;;;;;;4994848;28;20946;-87
2022/08/07 04:54:52;;;;;;;821.20;738.47;;;18.70;99.90;;;;;;4996188;28;20206;-87
2022/08/07 04:57:26;;;;;;;824.85;741.85;;;18.70;99.90;;;;;;4991764;28;20230;-88
2022/08/07 05:00:02;;;;;;;821.92;738.95;;;18.70;99.90;;;;;;4998308;28;20260;-88
2022/08/07 05:02:33;;;;;;;805.55;722.78;;;18.70;99.90;;;;;;4991516;28;20680;-85
2022/08/07 05:05:06;;;;;;;815.75;732.58;;;18.70;99.90;;;;;;4992672;28;20211;-88
2022/08/07 05:07:37;;;;;;;820.50;737.42;;;18.70;99.90;;;;;;4996009;28;20196;-87
2022/08/07 05:10:10;;;;;;;805.47;723.00;;;18.70;99.90;;;;;;4992828;28;20233;-90
2022/08/07 05:12:41;;;;;;;819.08;736.10;;;18.70;99.90;;;;;;4992103;28;20203;-88
2022/08/07 05:15:16;;;;;;;797.30;714.85;;;18.60;99.90;;;;;;4990777;28;20201;-88
2022/08/07 05:17:46;;;;;;;813.30;730.28;;;18.70;99.90;;;;;;4997798;28;20214;-87
2022/08/07 05:20:16;;;;;;;819.60;736.92;;;18.60;99.90;;;;;;4994523;28;20226;-87
2022/08/07 05:22:46;;;;;;;805.97;723.17;;;18.60;99.90;;;;;;4994454;28;20206;-87
2022/08/07 05:25:15;;;;;;;802.35;719.55;;;18.60;99.90;;;;;;5000505;28;20656;-88
2022/08/07 05:27:43;;;;;;;815.90;733.05;;;18.60;99.90;;;;;;4993432;28;20525;-91
2022/08/07 05:30:12;;;;;;;815.97;732.88;;;18.60;99.90;;;;;;4992413;28;20206;-92
2022/08/07 05:32:41;;;;;;;819.67;736.67;;;18.60;99.90;;;;;;4985875;28;20197;-92
2022/08/07 05:35:10;;;;;;;819.42;736.38;;;18.60;99.90;;;;;;4983399;28;20267;-89
2022/08/07 05:37:38;;;;;;;793.00;710.78;;;18.60;99.90;;;;;;4996117;28;20215;-89
2022/08/07 05:40:06;;;;;;;803.55;721.05;;;18.60;99.90;;;;;;4993662;28;20201;-87
2022/08/07 05:42:33;;;;;;;813.40;730.50;;;18.60;99.90;;;;;;4994699;28;20243;-90
2022/08/07 05:45:01;;;;;;;809.67;727.08;;;18.80;99.90;;;;;;4992088;28;20213;-90
2022/08/07 05:47:30;;;;;;;830.15;746.85;;;19.10;99.90;;;;;;4994042;28;20207;-91
2022/08/07 05:49:57;;;;;;;836.65;753.17;;;19.30;99.90;;;;;;4994702;28;20283;-92
2022/08/07 05:52:24;;;;;;;825.03;741.75;;;19.50;99.20;;;;;;5003186;28;20197;-92
2022/08/07 05:54:51;;;;;;;840.92;757.40;;;19.70;98.60;;;;;;4995464;28;20469;-89
2022/08/07 05:57:18;;;;;;;870.15;785.75;;;20.00;98.10;;;;;;4985546;28;20231;-88
2022/08/07 05:59:47;;;;;;;890.05;804.90;;;20.20;97.50;;;;;;4989878;28;20205;-88
2022/08/07 06:02:16;;;;;;;882.22;797.22;;;20.40;96.90;;;;;;4979603;28;20212;-88
2022/08/07 06:04:51;;;;;;;899.58;814.28;;;20.60;96.40;;;;;;4991129;28;20665;-87
2022/08/07 06:07:18;;;;;;;897.65;812.40;;;20.80;95.90;;;;;;4993932;28;20644;-85
2022/08/07 06:09:45;;;;;;;900.55;815.50;;;21.00;95.30;;;;;;4994794;28;20252;-88
2022/08/07 06:12:13;;;;;;;911.28;825.75;;;21.10;94.90;;;;;;4992465;28;20215;-87
2022/08/07 06:14:40;;;;;;;927.53;841.42;;;21.30;94.50;;;;;;4990400;28;20197;-89
2022/08/07 06:17:08;;;;;;;920.67;834.70;;;21.40;94.00;;;;;;4993439;28;20229;-87
2022/08/07 06:19:37;;;;;;;941.35;854.90;;;21.60;93.70;;;;;;4994145;28;20259;-87
2022/08/07 06:22:06;;;;;;;949.92;863.17;;;21.70;93.30;;;;;;4993490;28;20660;-83
2022/08/07 06:24:36;;;;;;;949.03;862.22;;;21.80;92.90;;;;;;4992019;28;20194;-85
2022/08/07 06:27:03;;;;;;;959.58;872.50;;;21.90;92.60;;;;;;4985182;28;20255;-84
2022/08/07 06:29:30;;;;;;;964.28;877.25;;;22.00;92.40;;;;;;4985900;28;20561;-85
2022/08/07 06:31:57;;;;;;;965.90;878.63;;;22.10;92.10;;;;;;5000117;28;20215;-84
2022/08/07 06:34:24;;;;;;;983.50;895.78;;;22.20;91.90;;;;;;4984057;28;20202;-84
2022/08/07 06:36:51;;;;;;;975.10;887.75;;;22.20;91.60;;;;;;5002115;28;20611;-85
2022/08/07 06:39:20;;;;;;;989.80;902.10;;;22.30;91.40;;;;;;4998108;28;20193;-89
2022/08/07 06:41:53;;;;;;;988.45;900.58;;;22.40;91.20;;;;;;4994304;28;20248;-92
2022/08/07 06:44:21;;;;;;;993.20;905.03;;;22.50;91.10;;;;;;5000903;28;20189;-91
2022/08/07 06:46:48;;;;;;;995.97;908.03;;;22.60;90.90;;;;;;4994319;28;20200;-90
2022/08/07 06:49:15;;;;;;;996.38;908.50;;;22.60;90.70;;;;;;4994603;28;20189;-88
2022/08/07 06:51:45;;;;;;;992.50;904.58;;;22.70;90.50;;;;;;4993354;28;20204;-90
2022/08/07 06:54:15;;;;;;;1009.53;921.10;;;22.80;90.40;;;;;;4994595;28;20211;-89
2022/08/07 06:56:46;;;;;;;996.78;908.88;;;22.80;90.20;;;;;;4992817;28;20676;-90
2022/08/07 06:59:15;;;;;;;1007.80;919.45;;;22.90;90.00;;;;;;4991769;28;20213;-88
2022/08/07 07:01:43;;;;;;;1009.33;920.60;;;23.00;89.90;;;;;;4993890;28;20193;-90
2022/08/07 07:04:10;;;;;;;1016.42;927.63;;;23.10;89.60;;;;;;4993900;28;20673;-88
2022/08/07 07:06:37;;;;;;;1017.13;928.25;;;23.10;89.30;;;;;;4994360;28;20571;-87
2022/08/07 07:09:18;;;;;;;1004.08;915.85;;;23.20;89.00;;;;;;4994648;28;20203;-91
2022/08/07 07:11:59;;;;;;;1025.32;936.13;;;23.20;88.60;;;;;;4992170;28;20201;-90
2022/08/07 07:14:28;;;;;;;1020.63;931.90;;;23.30;88.30;;;;;;4996134;28;20196;-89
2022/08/07 07:16:59;;;;;;;1013.50;924.88;;;23.40;88.10;;;;;;5010341;28;20201;-92
2022/08/07 07:19:30;;;;;;;1029.88;940.80;;;23.50;87.70;;;;;;5006572;28;20236;-88
2022/08/07 07:21:57;;;;;;;1032.05;943.10;;;23.60;87.40;;;;;;5006286;28;20196;-89
2022/08/07 07:24:24;;;;;;;1040.28;951.03;;;23.60;87.10;;;;;;5010130;28;20207;-86
2022/08/07 07:26:56;;;;;;;1038.78;949.38;;;23.70;87.00;;;;;;5008861;28;20559;-89
2022/08/07 07:29:27;;;;;;;1044.35;954.70;;;23.70;86.70;;;;;;5008232;28;20216;-91
2022/08/07 07:31:55;;;;;;;1043.80;954.35;;;23.80;86.50;;;;;;5008577;28;20196;-89
2022/08/07 07:34:25;;;;;;;1043.70;954.40;;;23.90;86.30;;;;;;5004008;28;20199;-90
2022/08/07 07:36:53;;;;;;;1051.78;961.95;;;23.90;85.90;;;;;;5010237;28;20204;-89
2022/08/07 07:39:22;;;;;;;1034.25;945.33;;;23.90;85.70;;;;;;5009310;28;20290;-90
2022/08/07 07:41:50;;;;;;;1048.93;959.45;;;24.00;85.60;;;;;;5005024;28;20227;-88
2022/08/07 07:44:20;;;;;;;1040.68;951.42;;;24.00;85.50;;;;;;5011473;28;20231;-89
2022/08/07 07:46:49;;;;;;;1052.57;962.88;;;24.10;85.20;;;;;;4996241;28;20198;-88
2022/08/07 07:49:18;;;;;;;1045.60;956.38;;;24.20;85.00;;;;;;4987279;28;20189;-86
2022/08/07 07:51:48;;;;;;;1051.27;961.77;;;24.20;84.60;;;;;;4997013;28;20201;-91
2022/08/07 07:54:17;;;;;;;1052.53;963.10;;;24.30;84.60;;;;;;4997152;28;20464;-90
2022/08/07 07:56:46;;;;;;;1047.28;957.97;;;24.30;84.30;;;;;;4996292;28;20201;-88
2022/08/07 07:59:14;;;;;;;1056.17;966.27;;;24.30;84.20;;;;;;4998517;28;20217;-88
2022/08/07 08:01:45;;;;;;;1069.77;979.13;;;24.40;84.20;;;;;;4995531;28;20474;-90
2022/08/07 08:04:13;;;;;;;1047.70;958.00;;;24.40;83.90;;;;;;4999937;28;20452;-90
2022/08/07 08:06:42;;;;;;;1061.37;971.23;;;24.50;83.80;;;;;;4996194;28;20452;-87
2022/08/07 08:09:10;;;;;;;1067.20;976.83;;;24.50;83.10;;;;;;4996847;28;20448;-90
2022/08/07 08:11:38;;;;;;;1060.63;970.60;;;24.60;83.30;;;;;;4997261;28;20456;-88
2022/08/07 08:14:04;;;;;;;1055.90;965.90;;;24.60;83.00;;;;;;4995028;28;20447;-82
2022/08/07 08:16:34;;;;;;;1073.50;982.93;;;24.70;83.10;;;;;;5000155;28;20950;-87
2022/08/07 08:19:05;;;;;;;1068.32;977.97;;;24.70;82.90;;;;;;4994795;28;20462;-88
2022/08/07 08:27:08;;;;;;;1081.37;990.37;;;24.80;82.40;;;;;;4989734;28;20451;-81
2022/08/07 08:29:40;;;;;;;1059.30;969.13;;;24.90;82.20;;;;;;4994009;28;20456;-87
2022/08/07 08:32:10;;;;;;;1074.83;984.30;;;24.90;81.90;;;;;;5002395;28;20462;-87
2022/08/07 08:34:40;;;;;;;1076.40;985.50;;;25.00;82.00;;;;;;4994423;28;20958;-89
2022/08/07 08:37:08;;;;;;;1083.37;992.50;;;25.00;81.90;;;;;;4992228;28;20468;-88
2022/08/07 08:39:36;;;;;;;1079.73;989.03;;;25.00;81.50;;;;;;4995420;28;20499;-88
2022/08/07 08:42:06;;;;;;;1090.57;997.40;;;25.00;81.40;;;;;;4991383;28;20448;-83
2022/08/07 08:44:39;;;;;;;1072.00;981.50;;;25.00;81.20;;;;;;4998309;28;20455;-87
2022/08/07 08:47:12;;;;;;;1074.83;984.43;;;25.10;81.00;;;;;;4994310;28;20470;-89
2022/08/07 08:49:49;;;;;;;1076.93;986.13;;;25.10;80.20;;;;;;4994343;28;20452;-84
2022/08/07 08:52:21;;;;;;;1069.73;979.47;;;25.10;79.90;;;;;;4993241;28;20479;-87
2022/08/07 08:54:56;;;;;;;1087.27;995.33;;;25.10;80.20;;;;;;5003170;28;20447;-86
2022/08/07 08:57:31;;;;;;;1096.53;998.97;;;25.10;80.40;;;;;;4990796;28;20458;-89
2022/08/07 09:00:04;;;;;;;1078.47;987.80;;;25.10;80.60;;;;;;4988299;28;20456;-89
2022/08/07 09:02:37;;;;;;;1084.90;993.70;;;25.10;81.10;;;;;;4993394;28;20451;-84
2022/08/07 09:05:23;;;;;;;1083.10;992.00;;;25.10;81.00;;;;;;4991761;28;20471;-85
2022/08/07 09:07:57;;;;;;;1073.27;982.77;;;25.10;78.40;;;;;;4992128;28;20452;-84
2022/08/07 09:10:29;;;;;;;1077.13;986.73;;;25.10;78.80;;;;;;4994761;28;20453;-85
2022/08/07 09:13:05;;;;;;;1063.93;974.07;;;25.10;80.50;;;;;;4996818;28;20830;-87
2022/08/07 09:15:38;;;;;;;1085.33;994.27;;;25.10;80.90;;;;;;4988071;28;20514;-90
2022/08/07 09:18:26;;;;;;;1086.87;995.37;;;25.10;77.60;;;;;;4991216;28;20587;-89
2022/08/07 09:21:03;;;;;;;1073.97;983.90;;;25.00;79.80;;;;;;4994355;28;20434;-83
2022/08/07 09:23:41;;;;;;;1086.40;994.93;;;25.00;79.50;;;;;;5003137;28;21280;-85
2022/08/07 09:26:18;;;;;;;1069.53;979.43;;;25.00;80.20;;;;;;4992665;28;20447;-81
2022/08/07 09:28:52;;;;;;;1076.63;986.17;;;25.00;80.00;;;;;;4990681;28;20842;-90
2022/08/07 09:31:25;;;;;;;1096.53;999.57;;;25.00;79.80;;;;;;4992473;28;20466;-89
2022/08/07 09:34:06;;;;;;;1080.93;990.27;;;24.90;80.00;;;;;;4990807;28;20469;-84
2022/08/07 09:36:39;;;;;;;1088.00;995.87;;;25.00;79.80;;;;;;4982884;28;21041;-86
2022/08/07 09:39:24;;;;;;;1079.60;989.20;;;24.90;80.00;;;;;;4998593;28;20485;-86
2022/08/07 09:42:01;;;;;;;1071.20;981.00;;;24.90;78.10;;;;;;4990943;28;20555;-87
2022/08/07 09:44:44;;;;;;;1080.40;989.90;;;24.80;77.60;;;;;;4992409;28;20463;-85
2022/08/07 09:47:19;;;;;;;1069.40;979.30;;;24.80;78.70;;;;;;4987803;28;20465;-89
2022/08/07 09:49:56;;;;;;;1075.47;985.07;;;24.80;79.50;;;;;;4991835;28;20454;-85
2022/08/07 09:52:32;;;;;;;1074.50;984.30;;;24.80;79.40;;;;;;5001556;28;20466;-90
2022/08/07 09:55:04;;;;;;;1074.93;984.38;;;24.80;79.60;;;;;;4994239;28;20489;-89
2022/08/07 09:58:04;;;;;;;1073.93;983.63;;;24.80;79.50;;;;;;4992676;28;20197;-89
2022/08/07 10:00:43;;;;;;;1061.97;972.07;;;24.70;79.00;;;;;;4966741;28;20444;-86
2022/08/07 10:03:51;;;;;;;1074.30;984.20;;;24.70;78.20;;;;;;4992107;28;20967;-83
2022/08/07 10:06:49;;;;;;;1063.73;973.97;;;24.70;77.50;;;;;;4909332;29;20422;-83
2022/08/07 10:09:30;;;;;;;1064.40;974.38;;;24.70;77.90;;;;;;4933541;29;20466;-83
2022/08/07 10:12:13;;;;;;;1075.03;984.70;;;24.60;77.30;;;;;;4974750;28;20216;-90
2022/08/07 10:15:03;;;;;;;1064.00;974.00;;;24.60;78.40;;;;;;5009401;28;20193;-86
2022/08/07 10:17:52;;;;;;;1071.27;981.07;;;24.60;77.10;;;;;;4985451;28;20434;-89
2022/08/07 10:20:27;;;;;;;1065.15;975.15;;;24.60;78.00;;;;;;4986740;28;20998;-86
2022/08/07 10:23:20;;;;;;;1065.70;975.55;;;24.50;78.40;;;;;;4994123;28;20203;-83
2022/08/07 10:26:01;;;;;;;1066.47;976.60;;;24.50;78.20;;;;;;4990228;28;20557;-85
2022/08/07 10:28:42;;;;;;;1060.57;970.80;;;24.50;77.70;;;;;;4988894;28;20467;-85
2022/08/07 10:31:31;;;;;;;1072.10;981.93;;;24.50;77.80;;;;;;4989770;28;20452;-84
2022/08/07 10:34:13;;;;;;;1049.35;959.95;;;24.50;78.80;;;;;;4999900;28;20460;-83
2022/08/07 10:36:51;;;;;;;1065.60;975.53;;;24.50;78.30;;;;;;4980888;28;20487;-83
2022/08/07 10:39:34;;;;;;;1056.65;967.05;;;24.50;78.90;;;;;;4987917;28;20228;-85
2022/08/07 10:42:22;;;;;;;1068.75;978.55;;;24.50;79.00;;;;;;4992424;28;20284;-88
2022/08/07 10:45:08;;;;;;;1057.85;968.22;;;24.50;78.40;;;;;;4990698;28;20193;-86
2022/08/07 10:47:44;;;;;;;1060.20;970.38;;;24.40;77.60;;;;;;4994348;28;20202;-83
2022/08/07 10:50:16;;;;;;;1059.35;969.45;;;24.40;77.10;;;;;;4986619;28;20196;-84
2022/08/07 10:52:55;;;;;;;1064.18;974.08;;;24.40;78.50;;;;;;4992875;28;20288;-84
2022/08/07 10:55:27;;;;;;;1067.07;976.92;;;24.40;78.70;;;;;;4984723;28;20203;-81
2022/08/07 10:58:09;;;;;;;1080.78;989.90;;;24.40;78.90;;;;;;4993844;28;20208;-83
2022/08/07 11:00:46;;;;;;;1049.50;960.10;;;24.30;77.50;;;;;;5001428;28;20216;-82
2022/08/07 11:03:19;;;;;;;1065.50;975.50;;;24.30;77.80;;;;;;4984958;28;20216;-82
2022/08/07 11:05:54;;;;;;;1063.18;973.42;;;24.30;76.40;;;;;;4988120;28;20656;-88
2022/08/07 11:08:43;;;;;;;1049.90;960.65;;;24.30;77.00;;;;;;4992238;28;20200;-86
2022/08/07 11:11:17;;;;;;;1042.47;953.30;;;24.30;77.40;;;;;;4983751;28;20197;-82
2022/08/07 11:13:48;;;;;;;1055.38;965.70;;;24.20;77.20;;;;;;4997752;28;20461;-86
2022/08/07 11:16:20;;;;;;;1049.63;960.30;;;24.20;77.00;;;;;;4990052;28;20557;-85
2022/08/07 11:18:51;;;;;;;1060.10;970.28;;;24.20;77.40;;;;;;4990936;28;20593;-87
2022/08/07 11:21:28;;;;;;;1057.63;967.85;;;24.20;78.10;;;;;;4992248;28;20211;-82
2022/08/07 11:24:02;;;;;;;1061.50;971.72;;;24.20;78.20;;;;;;4991282;28;20660;-85
2022/08/07 11:26:35;;;;;;;1051.43;961.95;;;24.20;78.20;;;;;;5001494;28;20193;-88
2022/08/07 11:29:07;;;;;;;1063.97;973.95;;;24.20;77.50;;;;;;4984664;28;20197;-83
2022/08/07 11:31:41;;;;;;;1060.22;970.20;;;24.20;77.70;;;;;;4988763;28;20804;-86
2022/08/07 11:34:17;;;;;;;1059.28;969.53;;;24.20;76.50;;;;;;4985908;28;20224;-84
2022/08/07 11:36:58;;;;;;;1043.30;954.50;;;24.20;76.70;;;;;;4986903;28;20203;-84
2022/08/07 11:39:39;;;;;;;1054.93;965.45;;;24.20;77.90;;;;;;4989144;28;20243;-87
2022/08/07 11:42:14;;;;;;;1039.53;950.58;;;24.10;77.60;;;;;;4982339;28;20197;-85
2022/08/07 11:44:54;;;;;;;1055.60;965.70;;;24.10;77.50;;;;;;4987745;28;20192;-82
2022/08/07 11:47:34;;;;;;;1052.50;963.08;;;24.10;77.50;;;;;;4979989;28;20197;-82
2022/08/07 11:50:16;;;;;;;1042.63;953.53;;;24.10;77.50;;;;;;4990036;28;20189;-82
2022/08/07 11:52:55;;;;;;;1045.68;956.45;;;24.10;77.60;;;;;;4982480;28;20207;-84
2022/08/07 11:55:40;;;;;;;1038.15;949.13;;;24.10;77.80;;;;;;4995881;28;20674;-86
2022/08/07 11:58:19;;;;;;;1053.22;963.75;;;24.00;77.10;;;;;;4981309;28;20197;-86
2022/08/07 12:00:57;;;;;;;1039.20;950.05;;;24.00;76.40;;;;;;4988244;28;20236;-83
2022/08/07 12:04:07;;;;;;;1033.57;944.83;;;24.00;76.90;;;;;;4989465;28;20201;-82
2022/08/07 12:06:46;;;;;;;1043.68;954.45;;;24.00;76.70;;;;;;4972957;28;20215;-88
2022/08/07 12:09:19;;;;;;;1046.97;957.53;;;24.00;77.60;;;;;;4982798;28;20767;-87
2022/08/07 12:11:52;;;;;;;1047.10;957.70;;;24.00;77.80;;;;;;4995424;28;20203;-85
2022/08/07 12:14:21;;;;;;;1029.78;941.15;;;24.00;77.90;;;;;;4992467;28;20209;-84
2022/08/07 12:16:54;;;;;;;1031.95;943.45;;;24.00;77.00;;;;;;4985063;28;20515;-84
2022/08/07 12:19:31;;;;;;;1048.25;958.97;;;23.90;78.00;;;;;;4981522;28;20685;-84
2022/08/07 12:22:04;;;;;;;1036.60;947.80;;;23.90;76.90;;;;;;4987409;28;20200;-86
2022/08/07 12:24:39;;;;;;;1042.82;953.80;;;23.90;78.40;;;;;;4984618;28;20663;-84
2022/08/07 12:27:12;;;;;;;1033.43;944.75;;;23.90;77.80;;;;;;4984644;28;20200;-85
2022/08/07 12:29:48;;;;;;;1033.88;945.03;;;23.90;77.90;;;;;;4989705;28;20193;-87